sensor_id;sensor_type;location;lat;lon;timestamp;temperature;humidity
38263;DHT22;24054;50.128;19.730;2022-07-29T00:00:49;25.60;60.20
38263;DHT22;24054;50.128;19.730;2022-07-29T00:03:16;25.60;60.80
38263;DHT22;24054;50.128;19.730;2022-07-29T00:05:43;25.60;60.30
38263;DHT22;24054;50.128;19.730;2022-07-29T00:08:09;25.50;60.30
38263;DHT22;24054;50.128;19.730;2022-07-29T00:10:36;25.60;60.30
38263;DHT22;24054;50.128;19.730;2022-07-29T00:13:04;25.60;60.40
38263;DHT22;24054;50.128;19.730;2022-07-29T00:15:31;25.50;60.80
38263;DHT22;24054;50.128;19.730;2022-07-29T00:17:58;25.50;60.80
38263;DHT22;24054;50.128;19.730;2022-07-29T00:20:24;25.50;60.80
38263;DHT22;24054;50.128;19.730;2022-07-29T00:22:51;25.60;60.90
38263;DHT22;24054;50.128;19.730;2022-07-29T00:25:18;25.50;60.40
38263;DHT22;24054;50.128;19.730;2022-07-29T00:27:45;25.50;60.90
38263;DHT22;24054;50.128;19.730;2022-07-29T00:30:14;25.50;60.90
38263;DHT22;24054;50.128;19.730;2022-07-29T00:32:40;25.50;60.90
38263;DHT22;24054;50.128;19.730;2022-07-29T00:35:08;25.50;60.50
38263;DHT22;24054;50.128;19.730;2022-07-29T00:37:52;25.50;60.40
38263;DHT22;24054;50.128;19.730;2022-07-29T00:40:18;25.50;60.90
38263;DHT22;24054;50.128;19.730;2022-07-29T00:42:46;25.50;60.50
38263;DHT22;24054;50.128;19.730;2022-07-29T00:45:15;25.50;61.00
38263;DHT22;24054;50.128;19.730;2022-07-29T00:47:42;25.50;61.00
38263;DHT22;24054;50.128;19.730;2022-07-29T00:50:09;25.50;61.00
38263;DHT22;24054;50.128;19.730;2022-07-29T00:52:37;25.50;60.50
38263;DHT22;24054;50.128;19.730;2022-07-29T00:55:04;25.50;61.00
38263;DHT22;24054;50.128;19.730;2022-07-29T00:57:31;25.50;60.60
38263;DHT22;24054;50.128;19.730;2022-07-29T00:59:58;25.50;60.60
38263;DHT22;24054;50.128;19.730;2022-07-29T01:02:26;25.50;61.10
38263;DHT22;24054;50.128;19.730;2022-07-29T01:04:53;25.50;61.10
38263;DHT22;24054;50.128;19.730;2022-07-29T01:07:20;25.50;60.60
38263;DHT22;24054;50.128;19.730;2022-07-29T01:09:47;25.50;61.10
38263;DHT22;24054;50.128;19.730;2022-07-29T01:12:15;25.50;60.60
38263;DHT22;24054;50.128;19.730;2022-07-29T01:14:43;25.50;60.60
38263;DHT22;24054;50.128;19.730;2022-07-29T01:17:12;25.50;61.10
38263;DHT22;24054;50.128;19.730;2022-07-29T01:19:48;25.50;61.10
38263;DHT22;24054;50.128;19.730;2022-07-29T01:22:19;25.50;61.10
38263;DHT22;24054;50.128;19.730;2022-07-29T01:24:54;25.40;61.00
38263;DHT22;24054;50.128;19.730;2022-07-29T01:27:30;25.50;61.10
38263;DHT22;24054;50.128;19.730;2022-07-29T01:30:00;25.40;60.50
38263;DHT22;24054;50.128;19.730;2022-07-29T01:32:29;25.40;61.10
38263;DHT22;24054;50.128;19.730;2022-07-29T01:34:58;25.50;61.10
38263;DHT22;24054;50.128;19.730;2022-07-29T01:37:27;25.40;61.00
38263;DHT22;24054;50.128;19.730;2022-07-29T01:39:55;25.40;60.50
38263;DHT22;24054;50.128;19.730;2022-07-29T01:42:24;25.40;61.00
38263;DHT22;24054;50.128;19.730;2022-07-29T01:44:54;25.40;61.00
38263;DHT22;24054;50.128;19.730;2022-07-29T01:47:25;25.40;61.00
38263;DHT22;24054;50.128;19.730;2022-07-29T01:49:54;25.40;60.50
38263;DHT22;24054;50.128;19.730;2022-07-29T01:52:21;25.40;61.00
38263;DHT22;24054;50.128;19.730;2022-07-29T01:54:52;25.40;61.00
38263;DHT22;24054;50.128;19.730;2022-07-29T01:57:21;25.30;60.90
38263;DHT22;24054;50.128;19.730;2022-07-29T01:59:51;25.40;60.50
38263;DHT22;24054;50.128;19.730;2022-07-29T02:02:18;25.40;60.50
38263;DHT22;24054;50.128;19.730;2022-07-29T02:04:47;25.40;61.00
38263;DHT22;24054;50.128;19.730;2022-07-29T02:07:17;25.40;60.50
38263;DHT22;24054;50.128;19.730;2022-07-29T02:09:44;25.40;60.50
38263;DHT22;24054;50.128;19.730;2022-07-29T02:12:12;25.40;61.00
38263;DHT22;24054;50.128;19.730;2022-07-29T02:14:40;25.40;60.40
38263;DHT22;24054;50.128;19.730;2022-07-29T02:17:08;25.40;60.40
38263;DHT22;24054;50.128;19.730;2022-07-29T02:19:35;25.30;60.90
38263;DHT22;24054;50.128;19.730;2022-07-29T02:22:05;25.30;60.30
38263;DHT22;24054;50.128;19.730;2022-07-29T02:24:32;25.40;60.90
38263;DHT22;24054;50.128;19.730;2022-07-29T02:27:00;25.30;60.30
38263;DHT22;24054;50.128;19.730;2022-07-29T02:29:28;25.30;60.80
38263;DHT22;24054;50.128;19.730;2022-07-29T02:31:56;25.30;60.80
38263;DHT22;24054;50.128;19.730;2022-07-29T02:34:25;25.30;60.30
38263;DHT22;24054;50.128;19.730;2022-07-29T02:36:53;25.30;60.30
38263;DHT22;24054;50.128;19.730;2022-07-29T02:39:22;25.30;60.30
38263;DHT22;24054;50.128;19.730;2022-07-29T02:41:48;25.30;60.30
38263;DHT22;24054;50.128;19.730;2022-07-29T02:44:16;25.30;60.30
38263;DHT22;24054;50.128;19.730;2022-07-29T02:46:45;25.30;60.20
38263;DHT22;24054;50.128;19.730;2022-07-29T02:49:14;25.30;60.80
38263;DHT22;24054;50.128;19.730;2022-07-29T02:51:42;25.30;60.70
38263;DHT22;24054;50.128;19.730;2022-07-29T02:54:10;25.30;60.20
38263;DHT22;24054;50.128;19.730;2022-07-29T02:56:38;25.30;60.70
38263;DHT22;24054;50.128;19.730;2022-07-29T02:59:07;25.30;60.70
38263;DHT22;24054;50.128;19.730;2022-07-29T03:01:35;25.30;60.70
38263;DHT22;24054;50.128;19.730;2022-07-29T03:04:05;25.30;60.80
38263;DHT22;24054;50.128;19.730;2022-07-29T03:06:32;25.30;60.10
38263;DHT22;24054;50.128;19.730;2022-07-29T03:08:59;25.30;60.70
38263;DHT22;24054;50.128;19.730;2022-07-29T03:11:26;25.30;60.60
38263;DHT22;24054;50.128;19.730;2022-07-29T03:13:54;25.30;60.10
38263;DHT22;24054;50.128;19.730;2022-07-29T03:16:21;25.30;60.60
38263;DHT22;24054;50.128;19.730;2022-07-29T03:18:49;25.30;60.10
38263;DHT22;24054;50.128;19.730;2022-07-29T03:21:16;25.30;60.10
38263;DHT22;24054;50.128;19.730;2022-07-29T03:23:43;25.20;60.50
38263;DHT22;24054;50.128;19.730;2022-07-29T03:26:10;25.20;60.00
38263;DHT22;24054;50.128;19.730;2022-07-29T03:28:37;25.30;60.60
38263;DHT22;24054;50.128;19.730;2022-07-29T03:31:05;25.20;60.40
38263;DHT22;24054;50.128;19.730;2022-07-29T03:33:32;25.20;60.50
38263;DHT22;24054;50.128;19.730;2022-07-29T03:35:58;25.20;60.00
38263;DHT22;24054;50.128;19.730;2022-07-29T03:38:27;25.20;60.40
38263;DHT22;24054;50.128;19.730;2022-07-29T03:40:56;25.20;59.90
38263;DHT22;24054;50.128;19.730;2022-07-29T03:43:23;25.20;59.90
38263;DHT22;24054;50.128;19.730;2022-07-29T03:45:52;25.20;60.40
38263;DHT22;24054;50.128;19.730;2022-07-29T03:48:21;25.20;59.90
38263;DHT22;24054;50.128;19.730;2022-07-29T03:50:48;25.20;60.30
38263;DHT22;24054;50.128;19.730;2022-07-29T03:53:15;25.20;60.30
38263;DHT22;24054;50.128;19.730;2022-07-29T03:55:43;25.20;59.80
38263;DHT22;24054;50.128;19.730;2022-07-29T03:58:11;25.20;59.80
38263;DHT22;24054;50.128;19.730;2022-07-29T04:00:38;25.20;59.80
38263;DHT22;24054;50.128;19.730;2022-07-29T04:03:05;25.20;60.40
38263;DHT22;24054;50.128;19.730;2022-07-29T04:05:34;25.20;60.30
38263;DHT22;24054;50.128;19.730;2022-07-29T04:08:01;25.20;60.30
38263;DHT22;24054;50.128;19.730;2022-07-29T04:10:27;25.10;59.70
38263;DHT22;24054;50.128;19.730;2022-07-29T04:12:54;25.10;60.80
38263;DHT22;24054;50.128;19.730;2022-07-29T04:15:21;25.20;60.30
38263;DHT22;24054;50.128;19.730;2022-07-29T04:17:48;25.20;60.30
38263;DHT22;24054;50.128;19.730;2022-07-29T04:20:14;25.10;59.70
38263;DHT22;24054;50.128;19.730;2022-07-29T04:22:42;25.20;60.30
38263;DHT22;24054;50.128;19.730;2022-07-29T04:25:09;27.80;62.10
38263;DHT22;24054;50.128;19.730;2022-07-29T04:27:36;25.10;59.70
38263;DHT22;24054;50.128;19.730;2022-07-29T04:30:22;25.10;60.20
38263;DHT22;24054;50.128;19.730;2022-07-29T04:32:49;25.10;59.70
38263;DHT22;24054;50.128;19.730;2022-07-29T04:35:16;25.10;59.70
38263;DHT22;24054;50.128;19.730;2022-07-29T04:37:44;25.10;59.70
38263;DHT22;24054;50.128;19.730;2022-07-29T04:40:11;25.10;59.70
38263;DHT22;24054;50.128;19.730;2022-07-29T04:42:38;25.10;59.70
38263;DHT22;24054;50.128;19.730;2022-07-29T04:45:05;25.10;59.60
38263;DHT22;24054;50.128;19.730;2022-07-29T04:47:32;25.10;60.10
38263;DHT22;24054;50.128;19.730;2022-07-29T04:49:59;25.10;59.60
38263;DHT22;24054;50.128;19.730;2022-07-29T04:52:25;25.10;59.70
38263;DHT22;24054;50.128;19.730;2022-07-29T04:54:53;25.10;60.10
38263;DHT22;24054;50.128;19.730;2022-07-29T04:57:20;25.10;60.10
38263;DHT22;24054;50.128;19.730;2022-07-29T04:59:47;25.10;60.10
38263;DHT22;24054;50.128;19.730;2022-07-29T05:02:14;25.10;60.10
38263;DHT22;24054;50.128;19.730;2022-07-29T05:04:40;25.10;59.60
38263;DHT22;24054;50.128;19.730;2022-07-29T05:07:07;25.10;60.10
38263;DHT22;24054;50.128;19.730;2022-07-29T05:09:34;25.10;59.60
38263;DHT22;24054;50.128;19.730;2022-07-29T05:12:02;25.10;60.10
38263;DHT22;24054;50.128;19.730;2022-07-29T05:14:29;25.10;60.10
38263;DHT22;24054;50.128;19.730;2022-07-29T05:16:55;25.10;60.10
38263;DHT22;24054;50.128;19.730;2022-07-29T05:19:22;25.10;60.10
38263;DHT22;24054;50.128;19.730;2022-07-29T05:21:49;25.10;60.10
38263;DHT22;24054;50.128;19.730;2022-07-29T05:24:16;25.10;59.60
38263;DHT22;24054;50.128;19.730;2022-07-29T05:26:43;25.10;60.10
38263;DHT22;24054;50.128;19.730;2022-07-29T05:29:11;25.10;59.60
38263;DHT22;24054;50.128;19.730;2022-07-29T05:31:38;25.10;59.60
38263;DHT22;24054;50.128;19.730;2022-07-29T05:34:04;25.10;60.00
38263;DHT22;24054;50.128;19.730;2022-07-29T05:36:31;25.10;59.60
38263;DHT22;24054;50.128;19.730;2022-07-29T05:38:58;25.10;60.00
38263;DHT22;24054;50.128;19.730;2022-07-29T05:41:24;25.10;60.10
38263;DHT22;24054;50.128;19.730;2022-07-29T05:43:51;25.10;60.10
38263;DHT22;24054;50.128;19.730;2022-07-29T05:46:19;25.10;59.60
38263;DHT22;24054;50.128;19.730;2022-07-29T05:48:46;25.10;60.10
38263;DHT22;24054;50.128;19.730;2022-07-29T05:51:13;25.10;59.60
38263;DHT22;24054;50.128;19.730;2022-07-29T05:53:40;25.10;60.00
38263;DHT22;24054;50.128;19.730;2022-07-29T05:56:06;25.10;60.10
38263;DHT22;24054;50.128;19.730;2022-07-29T05:58:33;25.10;59.60
38263;DHT22;24054;50.128;19.730;2022-07-29T06:01:00;25.10;60.10
38263;DHT22;24054;50.128;19.730;2022-07-29T06:03:28;25.10;60.00
38263;DHT22;24054;50.128;19.730;2022-07-29T06:05:55;25.10;59.60
38263;DHT22;24054;50.128;19.730;2022-07-29T06:08:22;25.10;59.60
38263;DHT22;24054;50.128;19.730;2022-07-29T06:10:49;25.10;59.60
38263;DHT22;24054;50.128;19.730;2022-07-29T06:13:15;25.10;60.10
38263;DHT22;24054;50.128;19.730;2022-07-29T06:15:42;25.10;60.10
38263;DHT22;24054;50.128;19.730;2022-07-29T06:18:09;25.10;60.20
38263;DHT22;24054;50.128;19.730;2022-07-29T06:20:38;25.00;59.60
38263;DHT22;24054;50.128;19.730;2022-07-29T06:23:05;25.10;59.70
38263;DHT22;24054;50.128;19.730;2022-07-29T06:25:31;25.10;60.30
38263;DHT22;24054;50.128;19.730;2022-07-29T06:28:00;25.10;60.30
38263;DHT22;24054;50.128;19.730;2022-07-29T06:30:26;25.10;60.30
38263;DHT22;24054;50.128;19.730;2022-07-29T06:32:56;25.10;60.30
38263;DHT22;24054;50.128;19.730;2022-07-29T06:35:23;25.10;59.80
38263;DHT22;24054;50.128;19.730;2022-07-29T06:37:51;25.20;60.40
38263;DHT22;24054;50.128;19.730;2022-07-29T06:40:18;25.10;60.40
38263;DHT22;24054;50.128;19.730;2022-07-29T06:43:03;25.20;59.50
38263;DHT22;24054;50.128;19.730;2022-07-29T06:45:33;25.20;58.50
38263;DHT22;24054;50.128;19.730;2022-07-29T06:48:00;25.10;57.70
38263;DHT22;24054;50.128;19.730;2022-07-29T06:50:27;25.10;58.80
38263;DHT22;24054;50.128;19.730;2022-07-29T06:52:55;25.10;59.40
38263;DHT22;24054;50.128;19.730;2022-07-29T06:55:22;25.10;58.90
38263;DHT22;24054;50.128;19.730;2022-07-29T06:57:48;25.20;59.00
38263;DHT22;24054;50.128;19.730;2022-07-29T07:00:16;25.20;59.30
38263;DHT22;24054;50.128;19.730;2022-07-29T07:02:43;25.10;59.20
38263;DHT22;24054;50.128;19.730;2022-07-29T07:05:10;25.20;58.90
38263;DHT22;24054;50.128;19.730;2022-07-29T07:07:37;25.20;58.90
38263;DHT22;24054;50.128;19.730;2022-07-29T07:10:05;25.30;59.50
38263;DHT22;24054;50.128;19.730;2022-07-29T07:12:32;25.30;59.40
38263;DHT22;24054;50.128;19.730;2022-07-29T07:14:59;25.30;59.40
38263;DHT22;24054;50.128;19.730;2022-07-29T07:17:26;25.30;59.40
38263;DHT22;24054;50.128;19.730;2022-07-29T07:19:53;25.30;59.10
38263;DHT22;24054;50.128;19.730;2022-07-29T07:22:20;25.30;59.50
38263;DHT22;24054;50.128;19.730;2022-07-29T07:24:46;25.40;59.10
38263;DHT22;24054;50.128;19.730;2022-07-29T07:27:15;25.40;59.70
38263;DHT22;24054;50.128;19.730;2022-07-29T07:29:41;25.40;59.70
38263;DHT22;24054;50.128;19.730;2022-07-29T07:32:08;25.40;59.70
38263;DHT22;24054;50.128;19.730;2022-07-29T07:34:35;25.50;59.30
38263;DHT22;24054;50.128;19.730;2022-07-29T07:37:03;25.50;59.90
38263;DHT22;24054;50.128;19.730;2022-07-29T07:39:29;25.50;59.80
38263;DHT22;24054;50.128;19.730;2022-07-29T07:41:56;25.50;59.70
38263;DHT22;24054;50.128;19.730;2022-07-29T07:44:24;25.50;59.70
38263;DHT22;24054;50.128;19.730;2022-07-29T07:46:51;25.50;59.10
38263;DHT22;24054;50.128;19.730;2022-07-29T07:49:18;25.50;59.60
38263;DHT22;24054;50.128;19.730;2022-07-29T07:51:45;25.50;59.60
38263;DHT22;24054;50.128;19.730;2022-07-29T07:54:12;25.60;59.50
38263;DHT22;24054;50.128;19.730;2022-07-29T07:56:39;25.60;59.70
38263;DHT22;24054;50.128;19.730;2022-07-29T07:59:06;25.60;60.10
38263;DHT22;24054;50.128;19.730;2022-07-29T08:01:34;25.60;60.30
38263;DHT22;24054;50.128;19.730;2022-07-29T08:04:01;25.70;60.50
38263;DHT22;24054;50.128;19.730;2022-07-29T08:06:28;25.70;60.30
38263;DHT22;24054;50.128;19.730;2022-07-29T08:08:55;25.70;60.30
38263;DHT22;24054;50.128;19.730;2022-07-29T08:11:22;25.70;60.90
38263;DHT22;24054;50.128;19.730;2022-07-29T08:13:49;25.80;61.10
38263;DHT22;24054;50.128;19.730;2022-07-29T08:16:16;25.80;61.40
38263;DHT22;24054;50.128;19.730;2022-07-29T08:18:45;25.80;61.10
38263;DHT22;24054;50.128;19.730;2022-07-29T08:21:13;25.80;61.20
38263;DHT22;24054;50.128;19.730;2022-07-29T08:23:41;25.90;61.60
38263;DHT22;24054;50.128;19.730;2022-07-29T08:26:16;25.90;61.80
38263;DHT22;24054;50.128;19.730;2022-07-29T08:28:44;25.90;62.20
38263;DHT22;24054;50.128;19.730;2022-07-29T08:31:11;26.00;62.10
38263;DHT22;24054;50.128;19.730;2022-07-29T08:33:38;26.00;62.60
38263;DHT22;24054;50.128;19.730;2022-07-29T08:36:07;26.00;62.50
38263;DHT22;24054;50.128;19.730;2022-07-29T08:38:34;26.00;62.70
38263;DHT22;24054;50.128;19.730;2022-07-29T08:41:00;26.10;63.30
38263;DHT22;24054;50.128;19.730;2022-07-29T08:43:28;26.10;63.30
38263;DHT22;24054;50.128;19.730;2022-07-29T08:45:55;26.10;62.40
38263;DHT22;24054;50.128;19.730;2022-07-29T08:48:22;26.20;62.80
38263;DHT22;24054;50.128;19.730;2022-07-29T08:50:51;26.20;61.70
38263;DHT22;24054;50.128;19.730;2022-07-29T08:53:20;26.20;62.10
38263;DHT22;24054;50.128;19.730;2022-07-29T08:55:48;26.20;61.60
38263;DHT22;24054;50.128;19.730;2022-07-29T08:58:15;26.20;60.40
38263;DHT22;24054;50.128;19.730;2022-07-29T09:00:42;26.20;60.90
38263;DHT22;24054;50.128;19.730;2022-07-29T09:03:10;26.20;60.10
38263;DHT22;24054;50.128;19.730;2022-07-29T09:05:41;26.20;60.80
38263;DHT22;24054;50.128;19.730;2022-07-29T09:08:08;26.20;60.50
38263;DHT22;24054;50.128;19.730;2022-07-29T09:10:37;26.20;60.40
38263;DHT22;24054;50.128;19.730;2022-07-29T09:13:05;26.20;59.80
38263;DHT22;24054;50.128;19.730;2022-07-29T09:15:32;26.30;59.80
38263;DHT22;24054;50.128;19.730;2022-07-29T09:17:59;26.30;60.20
38263;DHT22;24054;50.128;19.730;2022-07-29T09:20:27;26.30;60.10
38263;DHT22;24054;50.128;19.730;2022-07-29T09:23:14;26.30;59.90
38263;DHT22;24054;50.128;19.730;2022-07-29T09:25:43;26.30;59.60
38263;DHT22;24054;50.128;19.730;2022-07-29T09:28:11;26.30;59.40
38263;DHT22;24054;50.128;19.730;2022-07-29T09:30:43;26.30;58.60
38263;DHT22;24054;50.128;19.730;2022-07-29T09:33:16;26.30;59.20
38263;DHT22;24054;50.128;19.730;2022-07-29T09:35:42;26.30;58.30
38263;DHT22;24054;50.128;19.730;2022-07-29T09:38:10;26.30;58.70
38263;DHT22;24054;50.128;19.730;2022-07-29T09:40:37;26.30;58.10
38263;DHT22;24054;50.128;19.730;2022-07-29T09:43:11;26.30;58.20
38263;DHT22;24054;50.128;19.730;2022-07-29T09:45:38;26.30;58.20
38263;DHT22;24054;50.128;19.730;2022-07-29T09:48:13;26.30;58.30
38263;DHT22;24054;50.128;19.730;2022-07-29T09:50:41;26.40;59.00
38263;DHT22;24054;50.128;19.730;2022-07-29T09:53:09;26.30;59.00
38263;DHT22;24054;50.128;19.730;2022-07-29T09:55:45;26.40;58.70
38263;DHT22;24054;50.128;19.730;2022-07-29T09:58:17;26.30;58.70
38263;DHT22;24054;50.128;19.730;2022-07-29T10:00:45;26.40;59.20
38263;DHT22;24054;50.128;19.730;2022-07-29T10:03:12;26.40;58.90
38263;DHT22;24054;50.128;19.730;2022-07-29T10:05:40;26.40;60.30
38263;DHT22;24054;50.128;19.730;2022-07-29T10:08:07;26.30;60.30
38263;DHT22;24054;50.128;19.730;2022-07-29T10:10:35;26.30;61.00
38263;DHT22;24054;50.128;19.730;2022-07-29T10:13:04;27.00;61.50
38263;DHT22;24054;50.128;19.730;2022-07-29T10:15:34;26.40;61.10
38263;DHT22;24054;50.128;19.730;2022-07-29T10:18:06;26.50;60.60
38263;DHT22;24054;50.128;19.730;2022-07-29T10:20:36;26.50;61.10
38263;DHT22;24054;50.128;19.730;2022-07-29T10:23:04;26.60;61.10
38263;DHT22;24054;50.128;19.730;2022-07-29T10:25:32;26.60;61.20
38263;DHT22;24054;50.128;19.730;2022-07-29T10:28:00;26.70;61.20
38263;DHT22;24054;50.128;19.730;2022-07-29T10:30:28;26.80;60.70
38263;DHT22;24054;50.128;19.730;2022-07-29T10:33:05;26.80;61.20
38263;DHT22;24054;50.128;19.730;2022-07-29T10:35:40;26.80;61.10
38263;DHT22;24054;50.128;19.730;2022-07-29T10:38:15;26.90;61.10
38263;DHT22;24054;50.128;19.730;2022-07-29T10:40:45;27.00;61.20
38263;DHT22;24054;50.128;19.730;2022-07-29T10:43:35;27.00;61.10
38263;DHT22;24054;50.128;19.730;2022-07-29T10:46:03;27.10;61.10
38263;DHT22;24054;50.128;19.730;2022-07-29T10:48:33;27.10;60.50
38263;DHT22;24054;50.128;19.730;2022-07-29T10:51:00;27.20;61.10
38263;DHT22;24054;50.128;19.730;2022-07-29T10:53:48;27.20;61.00
38263;DHT22;24054;50.128;19.730;2022-07-29T10:56:24;27.20;61.00
38263;DHT22;24054;50.128;19.730;2022-07-29T11:01:38;27.30;60.90
38263;DHT22;24054;50.128;19.730;2022-07-29T11:04:07;27.30;57.90
38263;DHT22;24054;50.128;19.730;2022-07-29T11:09:18;27.20;57.50
38263;DHT22;24054;50.128;19.730;2022-07-29T11:11:46;27.10;57.00
38263;DHT22;24054;50.128;19.730;2022-07-29T11:14:14;27.00;56.80
38263;DHT22;24054;50.128;19.730;2022-07-29T11:16:59;27.00;56.90
38263;DHT22;24054;50.128;19.730;2022-07-29T11:19:29;26.90;56.80
38263;DHT22;24054;50.128;19.730;2022-07-29T11:21:56;26.80;56.30
38263;DHT22;24054;50.128;19.730;2022-07-29T11:24:27;26.80;56.70
38263;DHT22;24054;50.128;19.730;2022-07-29T11:27:09;26.80;57.10
38263;DHT22;24054;50.128;19.730;2022-07-29T11:29:38;26.70;57.10
38263;DHT22;24054;50.128;19.730;2022-07-29T11:32:09;26.70;57.00
38263;DHT22;24054;50.128;19.730;2022-07-29T11:34:38;26.70;56.30
38263;DHT22;24054;50.128;19.730;2022-07-29T11:37:21;26.70;56.50
38263;DHT22;24054;50.128;19.730;2022-07-29T11:42:39;26.60;56.50
38263;DHT22;24054;50.128;19.730;2022-07-29T11:45:07;26.50;56.00
38263;DHT22;24054;50.128;19.730;2022-07-29T11:47:35;26.50;56.00
38263;DHT22;24054;50.128;19.730;2022-07-29T11:50:05;26.50;55.30
38263;DHT22;24054;50.128;19.730;2022-07-29T11:52:32;26.40;55.70
38263;DHT22;24054;50.128;19.730;2022-07-29T11:55:03;26.40;55.70
38263;DHT22;24054;50.128;19.730;2022-07-29T11:57:31;26.40;55.70
38263;DHT22;24054;50.128;19.730;2022-07-29T12:00:00;26.40;55.40
38263;DHT22;24054;50.128;19.730;2022-07-29T12:02:37;26.40;56.00
38263;DHT22;24054;50.128;19.730;2022-07-29T12:05:06;26.40;55.50
38263;DHT22;24054;50.128;19.730;2022-07-29T12:07:33;26.30;55.90
38263;DHT22;24054;50.128;19.730;2022-07-29T12:10:01;26.30;55.80
38263;DHT22;24054;50.128;19.730;2022-07-29T12:12:29;26.30;55.70
38263;DHT22;24054;50.128;19.730;2022-07-29T12:14:56;26.30;55.30
38263;DHT22;24054;50.128;19.730;2022-07-29T12:17:26;26.20;55.20
38263;DHT22;24054;50.128;19.730;2022-07-29T12:19:54;26.20;55.70
38263;DHT22;24054;50.128;19.730;2022-07-29T12:22:28;26.20;54.40
38263;DHT22;24054;50.128;19.730;2022-07-29T12:25:00;26.20;55.00
38263;DHT22;24054;50.128;19.730;2022-07-29T12:27:27;26.20;55.20
38263;DHT22;24054;50.128;19.730;2022-07-29T12:29:55;26.10;55.00
38263;DHT22;24054;50.128;19.730;2022-07-29T12:32:23;26.10;55.20
38263;DHT22;24054;50.128;19.730;2022-07-29T12:34:50;26.10;55.60
38263;DHT22;24054;50.128;19.730;2022-07-29T12:37:17;26.20;56.40
38263;DHT22;24054;50.128;19.730;2022-07-29T12:39:46;26.20;56.60
38263;DHT22;24054;50.128;19.730;2022-07-29T12:42:13;26.30;56.40
38263;DHT22;24054;50.128;19.730;2022-07-29T12:44:44;26.30;57.00
38263;DHT22;24054;50.128;19.730;2022-07-29T12:47:10;26.40;56.80
38263;DHT22;24054;50.128;19.730;2022-07-29T12:49:37;26.40;57.40
38263;DHT22;24054;50.128;19.730;2022-07-29T12:54:48;26.50;57.40
38263;DHT22;24054;50.128;19.730;2022-07-29T12:57:15;26.50;57.90
38263;DHT22;24054;50.128;19.730;2022-07-29T12:59:42;26.60;57.80
38263;DHT22;24054;50.128;19.730;2022-07-29T13:02:20;26.60;58.40
38263;DHT22;24054;50.128;19.730;2022-07-29T13:04:54;26.60;58.10
38263;DHT22;24054;50.128;19.730;2022-07-29T13:07:23;26.60;58.70
38263;DHT22;24054;50.128;19.730;2022-07-29T13:09:52;26.60;58.80
38263;DHT22;24054;50.128;19.730;2022-07-29T13:12:19;26.60;58.90
38263;DHT22;24054;50.128;19.730;2022-07-29T13:14:46;26.70;59.10
38263;DHT22;24054;50.128;19.730;2022-07-29T13:17:14;26.60;57.10
38263;DHT22;24054;50.128;19.730;2022-07-29T13:19:42;26.60;57.60
38263;DHT22;24054;50.128;19.730;2022-07-29T13:22:10;26.50;56.20
38263;DHT22;24054;50.128;19.730;2022-07-29T13:24:47;26.50;56.80
38263;DHT22;24054;50.128;19.730;2022-07-29T13:27:16;26.50;56.70
38263;DHT22;24054;50.128;19.730;2022-07-29T13:29:43;26.50;57.40
38263;DHT22;24054;50.128;19.730;2022-07-29T13:32:10;26.50;57.60
38263;DHT22;24054;50.128;19.730;2022-07-29T13:34:37;26.50;57.60
38263;DHT22;24054;50.128;19.730;2022-07-29T13:37:04;26.50;58.20
38263;DHT22;24054;50.128;19.730;2022-07-29T13:39:31;26.60;58.00
38263;DHT22;24054;50.128;19.730;2022-07-29T13:41:57;26.60;58.70
38263;DHT22;24054;50.128;19.730;2022-07-29T13:44:26;26.60;58.80
38263;DHT22;24054;50.128;19.730;2022-07-29T13:46:52;26.60;56.80
38263;DHT22;24054;50.128;19.730;2022-07-29T13:49:19;26.60;57.20
38263;DHT22;24054;50.128;19.730;2022-07-29T13:51:48;26.60;57.90
38263;DHT22;24054;50.128;19.730;2022-07-29T13:54:15;26.60;57.70
38263;DHT22;24054;50.128;19.730;2022-07-29T13:56:42;26.60;57.90
38263;DHT22;24054;50.128;19.730;2022-07-29T13:59:09;26.60;58.50
38263;DHT22;24054;50.128;19.730;2022-07-29T14:01:37;26.60;58.70
38263;DHT22;24054;50.128;19.730;2022-07-29T14:04:06;26.60;58.70
38263;DHT22;24054;50.128;19.730;2022-07-29T14:06:33;26.70;58.70
38263;DHT22;24054;50.128;19.730;2022-07-29T14:09:00;26.60;58.70
38263;DHT22;24054;50.128;19.730;2022-07-29T14:11:27;26.70;58.10
38263;DHT22;24054;50.128;19.730;2022-07-29T14:13:54;26.70;57.60
38263;DHT22;24054;50.128;19.730;2022-07-29T14:16:20;26.60;57.70
38263;DHT22;24054;50.128;19.730;2022-07-29T14:18:49;26.70;58.40
38263;DHT22;24054;50.128;19.730;2022-07-29T14:21:15;26.60;58.30
38263;DHT22;24054;50.128;19.730;2022-07-29T14:23:42;26.70;58.80
38263;DHT22;24054;50.128;19.730;2022-07-29T14:26:09;26.70;58.60
38263;DHT22;24054;50.128;19.730;2022-07-29T14:28:36;26.70;57.50
38263;DHT22;24054;50.128;19.730;2022-07-29T14:31:02;26.60;57.10
38263;DHT22;24054;50.128;19.730;2022-07-29T14:33:29;26.60;57.70
38263;DHT22;24054;50.128;19.730;2022-07-29T14:35:57;26.70;57.80
38263;DHT22;24054;50.128;19.730;2022-07-29T14:38:24;26.60;57.90
38263;DHT22;24054;50.128;19.730;2022-07-29T14:40:51;26.70;58.60
38263;DHT22;24054;50.128;19.730;2022-07-29T14:43:17;26.70;58.20
38263;DHT22;24054;50.128;19.730;2022-07-29T14:45:44;26.70;58.80
38263;DHT22;24054;50.128;19.730;2022-07-29T14:48:11;26.70;58.90
38263;DHT22;24054;50.128;19.730;2022-07-29T14:50:38;26.70;59.00
38263;DHT22;24054;50.128;19.730;2022-07-29T14:53:06;26.70;58.80
38263;DHT22;24054;50.128;19.730;2022-07-29T14:55:33;26.70;58.90
38263;DHT22;24054;50.128;19.730;2022-07-29T14:58:00;26.70;58.90
38263;DHT22;24054;50.128;19.730;2022-07-29T15:00:27;26.70;59.10
38263;DHT22;24054;50.128;19.730;2022-07-29T15:02:57;26.70;58.60
38263;DHT22;24054;50.128;19.730;2022-07-29T15:05:24;26.70;59.10
38263;DHT22;24054;50.128;19.730;2022-07-29T15:07:51;26.70;57.10
38263;DHT22;24054;50.128;19.730;2022-07-29T15:10:20;26.70;57.60
38263;DHT22;24054;50.128;19.730;2022-07-29T15:12:47;26.70;57.30
38263;DHT22;24054;50.128;19.730;2022-07-29T15:15:15;26.60;56.30
38263;DHT22;24054;50.128;19.730;2022-07-29T15:17:42;26.70;56.90
38263;DHT22;24054;50.128;19.730;2022-07-29T15:20:09;26.60;56.50
38263;DHT22;24054;50.128;19.730;2022-07-29T15:22:37;26.60;56.30
38263;DHT22;24054;50.128;19.730;2022-07-29T15:25:05;26.60;55.90
38263;DHT22;24054;50.128;19.730;2022-07-29T15:27:33;26.50;56.20
38263;DHT22;24054;50.128;19.730;2022-07-29T15:30:02;26.50;56.20
38263;DHT22;24054;50.128;19.730;2022-07-29T15:32:29;26.50;56.20